createdAt,value
2022-11-01T00:00:19.801Z,101796.28
2022-11-01T00:03:25.505Z,101798.97
2022-11-01T00:06:31.240Z,101800.47
2022-11-01T00:09:37.802Z,101800.84
2022-11-01T00:12:44.744Z,101790.28
2022-11-01T00:15:49.974Z,101787.97
2022-11-01T00:18:55.765Z,101794.91
2022-11-01T00:22:01.104Z,101788.09
2022-11-01T00:25:07.028Z,101791.16
2022-11-01T00:28:12.809Z,101786.16
2022-11-01T00:31:20.870Z,101790.84
2022-11-01T00:34:26.316Z,101787.66
2022-11-01T00:37:32.166Z,101791.69
2022-11-01T00:40:37.813Z,101795.34
2022-11-01T00:43:42.952Z,101786.69
2022-11-01T00:46:48.080Z,101786.44
2022-11-01T00:49:53.169Z,101780.19
2022-11-01T00:52:58.628Z,101783.28
2022-11-01T00:56:06.761Z,101785.69
2022-11-01T00:59:12.057Z,101779.16
2022-11-01T01:02:17.716Z,101775.13
2022-11-01T01:05:23.642Z,101777.31
2022-11-01T01:08:29.047Z,101782.13
2022-11-01T01:11:34.723Z,101780.09
2022-11-01T01:14:40.469Z,101775.56
2022-11-01T01:17:46.019Z,101778.81
2022-11-01T01:20:51.539Z,101770.81
2022-11-01T01:23:57.038Z,101767.28
2022-11-01T01:27:03.738Z,101775.44
2022-11-01T01:30:09.747Z,101771.59
2022-11-01T01:33:15.268Z,101775.03
2022-11-01T01:36:21.279Z,101767.16
2022-11-01T01:39:26.613Z,101770.13
2022-11-01T01:42:41.290Z,101760.53
2022-11-01T01:45:47.294Z,101773.16
2022-11-01T01:48:57.977Z,101770.34
2022-11-01T01:52:05.078Z,101781.22
2022-11-01T01:55:12.767Z,101772.41
2022-11-01T01:58:23.126Z,101779.75
2022-11-01T02:01:29.634Z,101776.34
2022-11-01T02:04:49.776Z,101762.41
2022-11-01T02:07:57.213Z,101764.94
2022-11-01T02:11:07.716Z,101756.13
2022-11-01T02:14:13.783Z,101760.84
2022-11-01T02:17:22.543Z,101766.50
2022-11-01T02:20:43.784Z,101767.44
2022-11-01T02:24:07.645Z,101756.75
2022-11-01T02:27:24.981Z,101761.38
2022-11-01T02:30:43.788Z,101760.00
2022-11-01T02:34:01.835Z,101755.91
2022-11-01T02:37:47.995Z,101753.63
2022-11-01T02:40:59.786Z,101765.09
2022-11-01T02:44:12.849Z,101768.00
2022-11-01T02:47:19.567Z,101775.53
2022-11-01T02:50:28.345Z,101759.75
2022-11-01T02:53:33.927Z,101759.94
2022-11-01T02:56:39.724Z,101758.88
2022-11-01T02:59:47.851Z,101768.34
2022-11-01T03:03:03.776Z,101775.31
2022-11-01T03:06:18.965Z,101780.44
2022-11-01T03:09:25.477Z,101778.94
2022-11-01T03:12:36.051Z,101783.47
2022-11-01T03:15:57.613Z,101783.66
2022-11-01T03:19:21.600Z,101782.78
2022-11-01T03:22:41.671Z,101780.97
2022-11-01T03:25:55.656Z,101778.72
2022-11-01T03:29:07.115Z,101779.53
2022-11-01T03:32:15.379Z,101774.63
2022-11-01T03:35:25.017Z,101775.66
2022-11-01T03:38:36.335Z,101772.59
2022-11-01T03:41:49.740Z,101783.44
2022-11-01T03:45:03.285Z,101778.50
2022-11-01T03:48:09.027Z,101775.41
2022-11-01T03:51:14.749Z,101792.03
2022-11-01T03:54:20.403Z,101808.72
2022-11-01T03:57:26.049Z,101810.59
2022-11-01T04:00:34.752Z,101809.75
2022-11-01T04:03:40.333Z,101802.19
2022-11-01T04:06:45.563Z,101805.66
2022-11-01T04:09:51.503Z,101797.88
2022-11-01T04:12:57.879Z,101803.19
2022-11-01T04:16:21.786Z,101802.59
2022-11-01T04:19:45.878Z,101793.75
2022-11-01T04:22:51.341Z,101796.19
2022-11-01T04:25:57.241Z,101796.19
2022-11-01T04:29:02.813Z,101803.59
2022-11-01T04:32:08.158Z,101799.88
2022-11-01T04:35:13.484Z,101804.59
2022-11-01T04:38:18.736Z,101798.25
2022-11-01T04:41:28.977Z,101791.47
2022-11-01T04:44:34.308Z,101799.06
2022-11-01T04:47:39.995Z,101795.53
2022-11-01T04:50:46.282Z,101796.78
2022-11-01T04:53:51.764Z,101793.31
2022-11-01T04:56:59.083Z,101794.53
2022-11-01T05:00:05.399Z,101791.25
2022-11-01T05:03:12.293Z,101785.13
2022-11-01T05:06:18.390Z,101791.69
2022-11-01T05:09:24.084Z,101786.59
2022-11-01T05:12:29.637Z,101794.53
2022-11-01T05:15:39.991Z,101794.72
2022-11-01T05:18:45.731Z,101788.81
2022-11-01T05:21:51.238Z,101784.72
2022-11-01T05:24:56.768Z,101787.63
2022-11-01T05:28:08.535Z,101788.41
2022-11-01T05:31:14.283Z,101794.97
2022-11-01T05:34:19.746Z,101784.28
2022-11-01T05:37:28.049Z,101796.41
2022-11-01T05:40:34.201Z,101806.84
2022-11-01T05:43:39.397Z,101804.44
2022-11-01T05:46:45.080Z,101815.50
2022-11-01T05:49:50.407Z,101818.38
2022-11-01T05:52:55.885Z,101816.31
2022-11-01T05:56:01.753Z,101821.28
2022-11-01T05:59:06.868Z,101822.47
2022-11-01T06:02:12.117Z,101825.56
2022-11-01T06:05:17.453Z,101824.53
2022-11-01T06:08:22.395Z,101829.66
2022-11-01T06:11:28.221Z,101833.16
2022-11-01T06:17:43.969Z,101833.78
2022-11-01T06:20:49.776Z,101826.78
2022-11-01T06:23:54.932Z,101834.59
2022-11-01T06:27:00.149Z,101835.19
2022-11-01T06:30:05.976Z,101838.69
2022-11-01T06:33:11.332Z,101845.81
2022-11-01T06:36:16.971Z,101853.97
2022-11-01T06:39:22.251Z,101857.88
2022-11-01T06:42:27.395Z,101863.44
2022-11-01T06:45:33.162Z,101858.88
2022-11-01T06:48:38.969Z,101857.81
2022-11-01T06:51:44.342Z,101867.69
2022-11-01T06:54:49.533Z,101865.38
2022-11-01T06:58:00.284Z,101866.63
2022-11-01T07:01:06.211Z,101876.03
2022-11-01T07:07:22.682Z,101883.06
2022-11-01T07:10:29.217Z,101883.44
2022-11-01T07:13:37.427Z,101889.81
2022-11-01T07:16:43.070Z,101890.75
2022-11-01T07:19:48.600Z,101896.56
2022-11-01T07:23:02.365Z,101896.09
2022-11-01T07:26:08.026Z,101901.75
2022-11-01T07:29:13.772Z,101901.66
2022-11-01T07:32:19.212Z,101903.03
2022-11-01T07:35:25.650Z,101914.75
2022-11-01T07:38:31.069Z,101910.19
2022-11-01T07:41:36.599Z,101903.16
2022-11-01T07:44:45.758Z,101907.81
2022-11-01T07:47:51.151Z,101918.66
2022-11-01T07:50:57.691Z,101902.72
2022-11-01T07:54:03.226Z,101913.56
2022-11-01T07:57:09.674Z,101914.41
2022-11-01T08:00:15.967Z,101902.69
2022-11-01T08:03:22.521Z,101917.44
2022-11-01T08:06:27.942Z,101911.56
2022-11-01T08:09:34.809Z,101919.22
2022-11-01T08:12:40.144Z,101912.69
2022-11-01T08:15:48.000Z,101914.78
2022-11-01T08:18:55.378Z,101914.59
2022-11-01T08:22:01.748Z,101916.34
2022-11-01T08:25:09.044Z,101909.03
2022-11-01T08:28:18.574Z,101904.75
2022-11-01T08:31:25.023Z,101906.78
2022-11-01T08:34:31.281Z,101911.41
2022-11-01T08:37:36.693Z,101910.84
2022-11-01T08:40:41.866Z,101915.44
2022-11-01T08:43:47.435Z,101914.75
2022-11-01T08:46:56.101Z,101908.22
2022-11-01T08:50:03.272Z,101918.25
2022-11-01T08:53:13.800Z,101917.56
2022-11-01T08:56:21.200Z,101911.03
2022-11-01T08:59:26.661Z,101908.38
2022-11-01T09:02:32.471Z,101909.34
2022-11-01T09:05:38.161Z,101914.03
2022-11-01T09:08:43.744Z,101910.44
2022-11-01T09:11:49.606Z,101921.50
2022-11-01T09:14:55.261Z,101919.44
2022-11-01T09:18:06.357Z,101926.44
2022-11-01T09:21:12.119Z,101934.81
2022-11-01T09:24:18.464Z,101933.78
2022-11-01T09:27:24.077Z,101925.94
2022-11-01T09:30:30.734Z,101928.19
2022-11-01T09:33:36.667Z,101927.00
2022-11-01T09:36:42.207Z,101934.16
2022-11-01T09:39:47.675Z,101940.56
2022-11-01T09:42:59.114Z,101929.06
2022-11-01T09:46:15.114Z,101934.56
2022-11-01T09:49:31.514Z,101937.94
2022-11-01T09:52:36.955Z,101936.09
2022-11-01T09:56:13.043Z,101945.28
2022-11-01T09:59:27.643Z,101937.19
2022-11-01T10:02:57.681Z,101933.22
2022-11-01T10:06:15.750Z,101945.13
2022-11-01T10:09:39.578Z,101935.50
2022-11-01T10:13:16.425Z,101944.63
2022-11-01T10:16:36.793Z,101946.72
2022-11-01T10:19:47.482Z,101942.31
2022-11-01T10:22:52.816Z,101938.50
2022-11-01T10:25:58.456Z,101934.75
2022-11-01T10:29:07.700Z,101926.19
2022-11-01T10:32:38.709Z,101926.94
2022-11-01T10:35:52.159Z,101938.06
2022-11-01T10:39:53.529Z,101954.22
2022-11-01T10:42:46.816Z,101954.16
2022-11-01T10:45:57.215Z,101941.84
2022-11-01T10:49:07.157Z,101938.34
2022-11-01T10:52:18.096Z,101932.22
2022-11-01T10:55:49.784Z,101929.84
2022-11-01T10:58:54.982Z,101931.00
2022-11-01T11:02:03.352Z,101921.13
2022-11-01T11:05:14.160Z,101909.38
2022-11-01T11:08:22.799Z,101908.56
2022-11-01T11:11:37.279Z,101917.78
2022-11-01T11:14:49.267Z,101914.19
2022-11-01T11:17:58.496Z,101906.91
2022-11-01T11:21:09.203Z,101897.59
2022-11-01T11:24:21.150Z,101892.38
2022-11-01T11:27:31.201Z,101899.53
2022-11-01T11:30:36.875Z,101903.75
2022-11-01T11:34:38.452Z,101906.03
2022-11-01T11:38:06.796Z,101915.31
2022-11-01T11:41:27.320Z,101909.94
2022-11-01T11:44:41.457Z,101903.41
2022-11-01T11:47:50.331Z,101904.03
2022-11-01T11:51:16.160Z,101909.25
2022-11-01T11:54:32.000Z,101903.38
2022-11-01T11:57:37.469Z,101909.06
2022-11-01T12:00:48.242Z,101900.47
2022-11-01T12:04:05.511Z,101895.75
2022-11-01T12:07:40.191Z,101900.38
2022-11-01T12:10:47.007Z,101894.56
2022-11-01T12:14:22.087Z,101881.31
2022-11-01T12:17:45.902Z,101875.44
2022-11-01T12:20:53.149Z,101860.97
2022-11-01T12:24:27.408Z,101846.69
2022-11-01T12:27:36.464Z,101850.19
2022-11-01T12:30:43.756Z,101843.75
2022-11-01T12:33:59.110Z,101845.53
2022-11-01T12:37:18.253Z,101843.72
2022-11-01T12:40:29.020Z,101846.41
2022-11-01T12:43:43.183Z,101837.81
2022-11-01T12:47:33.893Z,101844.91
2022-11-01T12:50:54.501Z,101844.44
2022-11-01T12:54:23.244Z,101839.94
2022-11-01T12:57:28.874Z,101840.59
2022-11-01T13:01:05.791Z,101829.53
2022-11-01T13:04:30.338Z,101817.09
2022-11-01T13:07:57.811Z,101817.22
2022-11-01T13:11:26.041Z,101810.00
2022-11-01T13:15:01.780Z,101811.00
2022-11-01T13:18:21.451Z,101811.25
2022-11-01T13:21:56.624Z,101821.81
2022-11-01T13:25:13.920Z,101828.78
2022-11-01T13:28:53.155Z,101823.63
2022-11-01T13:32:14.274Z,101836.88
2022-11-01T13:35:43.127Z,101839.78
2022-11-01T13:38:59.298Z,101840.06
2022-11-01T13:42:17.045Z,101829.75
2022-11-01T13:45:54.286Z,101828.19
2022-11-01T13:49:08.466Z,101819.00
2022-11-01T13:52:13.876Z,101819.00
2022-11-01T13:55:27.732Z,101826.47
2022-11-01T13:58:34.126Z,101830.75
2022-11-01T14:01:42.523Z,101836.19
2022-11-01T14:05:03.388Z,101839.66
2022-11-01T14:08:16.004Z,101838.34
2022-11-01T14:11:45.254Z,101841.56
2022-11-01T14:14:52.211Z,101842.13
2022-11-01T14:18:11.624Z,101836.69
2022-11-01T14:21:32.257Z,101834.47
2022-11-01T14:25:15.887Z,101839.88
2022-11-01T14:28:21.793Z,101837.16
2022-11-01T14:31:32.398Z,101836.06
2022-11-01T14:34:39.300Z,101839.28
2022-11-01T14:37:54.274Z,101835.78
2022-11-01T14:41:00.806Z,101831.38
2022-11-01T14:44:18.691Z,101818.72
2022-11-01T14:47:41.209Z,101804.59
2022-11-01T14:51:17.141Z,101793.25
2022-11-01T14:54:37.186Z,101788.94
2022-11-01T14:57:43.486Z,101791.84
2022-11-01T15:00:52.182Z,101795.63
2022-11-01T15:04:00.275Z,101801.78
2022-11-01T15:07:27.836Z,101812.84
2022-11-01T15:10:43.503Z,101821.69
2022-11-01T15:13:50.140Z,101827.59
2022-11-01T15:16:56.834Z,101831.09
2022-11-01T15:20:13.422Z,101838.34
2022-11-01T15:23:27.791Z,101833.94
2022-11-01T15:26:34.399Z,101829.09
2022-11-01T15:29:39.528Z,101835.00
2022-11-01T15:32:45.355Z,101831.16
2022-11-01T15:35:56.489Z,101824.38
2022-11-01T15:39:05.005Z,101828.66
2022-11-01T15:42:20.418Z,101838.66
2022-11-01T15:45:31.037Z,101839.13
2022-11-01T15:48:38.325Z,101853.69
2022-11-01T15:51:55.791Z,101853.88
2022-11-01T15:55:17.344Z,101858.19
2022-11-01T15:58:30.984Z,101871.69
2022-11-01T16:01:38.279Z,101876.81
2022-11-01T16:04:46.844Z,101870.88
2022-11-01T16:07:53.019Z,101863.03
2022-11-01T16:11:00.110Z,101861.28
2022-11-01T16:14:14.790Z,101867.81
2022-11-01T16:17:34.195Z,101873.69
2022-11-01T16:20:47.438Z,101880.16
2022-11-01T16:23:57.890Z,101890.06
2022-11-01T16:27:08.220Z,101896.50
2022-11-01T16:30:46.551Z,101894.31
2022-11-01T16:33:56.689Z,101903.94
2022-11-01T16:37:01.942Z,101908.84
2022-11-01T16:40:27.101Z,101902.97
2022-11-01T16:43:35.204Z,101909.72
2022-11-01T16:46:40.931Z,101912.63
2022-11-01T16:49:54.600Z,101914.66
2022-11-01T16:53:00.691Z,101913.25
2022-11-01T16:56:35.114Z,101914.53
2022-11-01T16:59:38.379Z,101919.25
2022-11-01T17:02:44.755Z,101915.41
2022-11-01T17:05:56.059Z,101915.34
2022-11-01T17:09:02.351Z,101920.91
2022-11-01T17:12:08.722Z,101908.97
2022-11-01T17:15:18.535Z,101899.25
2022-11-01T17:18:32.668Z,101887.59
2022-11-01T17:21:40.082Z,101890.13
2022-11-01T17:24:46.345Z,101897.03
2022-11-01T17:27:52.168Z,101908.72
2022-11-01T17:30:57.651Z,101913.28
2022-11-01T17:34:03.478Z,101914.13
2022-11-01T17:37:15.052Z,101911.78
2022-11-01T17:40:21.911Z,101903.06
2022-11-01T17:43:27.121Z,101906.25
2022-11-01T17:46:32.727Z,101911.94
2022-11-01T17:49:38.626Z,101911.03
2022-11-01T17:52:44.331Z,101912.56
2022-11-01T17:55:57.293Z,101908.16
2022-11-01T17:59:02.951Z,101910.19
2022-11-01T18:02:10.135Z,101896.91
2022-11-01T18:05:15.814Z,101900.66
2022-11-01T18:08:26.361Z,101903.34
2022-11-01T18:11:51.825Z,101901.69
2022-11-01T18:15:22.384Z,101904.06
2022-11-01T18:18:49.316Z,101902.66
2022-11-01T18:22:31.508Z,101898.88
2022-11-01T18:25:41.311Z,101909.38
2022-11-01T18:28:46.641Z,101913.94
2022-11-01T18:32:02.708Z,101922.16
2022-11-01T18:35:25.026Z,101925.44
2022-11-01T18:38:42.567Z,101927.00
2022-11-01T18:41:50.131Z,101925.19
2022-11-01T18:45:06.636Z,101921.34
2022-11-01T18:48:29.034Z,101921.75
2022-11-01T18:51:34.838Z,101917.88
2022-11-01T18:54:56.058Z,101922.09
2022-11-01T18:58:16.726Z,101920.59
2022-11-01T19:01:33.896Z,101927.38
2022-11-01T19:04:43.224Z,101919.78
2022-11-01T19:08:10.965Z,101929.94
2022-11-01T19:11:17.765Z,101921.53
2022-11-01T19:14:23.594Z,101924.91
2022-11-01T19:17:37.482Z,101925.00
2022-11-01T19:20:53.099Z,101933.91
2022-11-01T19:23:58.602Z,101926.75
2022-11-01T19:27:15.766Z,101930.50
2022-11-01T19:30:29.004Z,101926.66
2022-11-01T19:33:38.162Z,101926.28
2022-11-01T19:36:45.126Z,101934.03
2022-11-01T19:39:50.624Z,101929.94
2022-11-01T19:42:58.242Z,101935.31
2022-11-01T19:46:03.383Z,101929.22
2022-11-01T19:49:38.015Z,101931.91
2022-11-01T19:52:47.439Z,101936.09
2022-11-01T19:55:58.423Z,101932.59
2022-11-01T19:59:17.020Z,101940.66
2022-11-01T20:02:25.017Z,101950.25
2022-11-01T20:05:36.020Z,101947.66
2022-11-01T20:08:44.409Z,101947.75
2022-11-01T20:11:51.926Z,101944.50
2022-11-01T20:14:57.691Z,101936.66
2022-11-01T20:18:04.634Z,101940.97
2022-11-01T20:21:11.827Z,101943.75
2022-11-01T20:24:19.293Z,101944.59
2022-11-01T20:27:26.390Z,101948.22
2022-11-01T20:30:32.253Z,101948.44
2022-11-01T20:33:39.392Z,101951.69
2022-11-01T20:37:02.168Z,101942.69
2022-11-01T20:40:15.067Z,101948.63
2022-11-01T20:43:21.986Z,101947.34
2022-11-01T20:46:27.895Z,101959.94
2022-11-01T20:49:34.973Z,101961.19
2022-11-01T20:52:41.741Z,101961.19
2022-11-01T20:55:48.537Z,101966.19
2022-11-01T20:58:55.424Z,101964.25
2022-11-01T21:02:01.341Z,101971.22
2022-11-01T21:05:29.650Z,101976.13
2022-11-01T21:08:37.350Z,101990.88
2022-11-01T21:11:46.375Z,101992.19
2022-11-01T21:14:54.987Z,101991.91
2022-11-01T21:18:03.426Z,101994.81
2022-11-01T21:21:14.717Z,101991.06
2022-11-01T21:24:36.470Z,101989.38
2022-11-01T21:27:43.460Z,101996.38
2022-11-01T21:30:48.900Z,101992.72
2022-11-01T21:34:04.854Z,101985.50
2022-11-01T21:37:10.501Z,101991.16
2022-11-01T21:40:34.315Z,101992.84
2022-11-01T21:43:39.812Z,101992.44
2022-11-01T21:46:54.679Z,101999.19
2022-11-01T21:50:00.238Z,101996.06
2022-11-01T21:53:06.331Z,101986.03
2022-11-01T21:56:12.303Z,101992.13
2022-11-01T21:59:17.892Z,101990.28
2022-11-01T22:02:23.890Z,101994.88
2022-11-01T22:05:29.812Z,101980.44
2022-11-01T22:08:35.456Z,101987.81
2022-11-01T22:11:41.275Z,101979.31
2022-11-01T22:14:46.393Z,101977.00
2022-11-01T22:17:51.873Z,101979.25
2022-11-01T22:20:57.417Z,101981.78
2022-11-01T22:24:03.868Z,101981.41
2022-11-01T22:27:09.116Z,101986.38
2022-11-01T22:30:15.808Z,101989.81
2022-11-01T22:33:21.595Z,101988.59
2022-11-01T22:36:29.763Z,101996.63
2022-11-01T22:39:36.009Z,102001.53
2022-11-01T22:42:41.969Z,101992.06
2022-11-01T22:45:47.751Z,101988.94
2022-11-01T22:49:01.031Z,101989.53
2022-11-01T22:52:34.006Z,101983.78
2022-11-01T22:55:43.593Z,101987.50
2022-11-01T22:58:51.281Z,101987.50
2022-11-01T23:02:07.600Z,101990.13
2022-11-01T23:05:13.499Z,101980.16
2022-11-01T23:08:32.474Z,101972.41
2022-11-01T23:11:56.494Z,101975.00
2022-11-01T23:15:01.644Z,101969.00
2022-11-01T23:18:23.094Z,101966.06
2022-11-01T23:21:28.969Z,101966.06
2022-11-01T23:24:34.407Z,101954.94
2022-11-01T23:27:44.488Z,101959.13
2022-11-01T23:30:50.002Z,101960.81
2022-11-01T23:33:55.921Z,101952.09
2022-11-01T23:37:01.074Z,101956.47
2022-11-01T23:40:16.883Z,101954.41
2022-11-01T23:43:32.982Z,101960.06
2022-11-01T23:46:38.680Z,101947.63
2022-11-01T23:49:46.804Z,101952.69
2022-11-01T23:52:58.841Z,101964.88
2022-11-01T23:56:07.218Z,101970.34
2022-11-01T23:59:12.740Z,101968.41
